sensor_id;sensor_type;location;lat;lon;timestamp;temperature;humidity
64843;DHT22;51310;52.198;5.422;2022-08-07T00:02:00;14.70;99.70
64843;DHT22;51310;52.198;5.422;2022-08-07T00:04:25;14.60;99.90
64843;DHT22;51310;52.198;5.422;2022-08-07T00:06:51;14.50;99.90
64843;DHT22;51310;52.198;5.422;2022-08-07T00:09:20;14.50;99.90
64843;DHT22;51310;52.198;5.422;2022-08-07T00:11:47;14.40;99.90
64843;DHT22;51310;52.198;5.422;2022-08-07T00:14:14;14.40;99.90
64843;DHT22;51310;52.198;5.422;2022-08-07T00:16:39;14.20;99.90
64843;DHT22;51310;52.198;5.422;2022-08-07T00:19:05;14.30;99.90
64843;DHT22;51310;52.198;5.422;2022-08-07T00:21:31;15.20;99.90
64843;DHT22;51310;52.198;5.422;2022-08-07T00:23:57;14.90;99.90
64843;DHT22;51310;52.198;5.422;2022-08-07T00:26:23;14.40;99.90
64843;DHT22;51310;52.198;5.422;2022-08-07T00:28:49;14.30;99.90
64843;DHT22;51310;52.198;5.422;2022-08-07T00:31:14;14.20;99.90
64843;DHT22;51310;52.198;5.422;2022-08-07T00:33:40;14.20;99.90
64843;DHT22;51310;52.198;5.422;2022-08-07T00:36:07;14.10;99.90
64843;DHT22;51310;52.198;5.422;2022-08-07T00:38:34;14.10;99.90
64843;DHT22;51310;52.198;5.422;2022-08-07T00:41:02;14.10;99.90
64843;DHT22;51310;52.198;5.422;2022-08-07T00:43:30;14.00;99.90
64843;DHT22;51310;52.198;5.422;2022-08-07T00:45:56;14.10;99.90
64843;DHT22;51310;52.198;5.422;2022-08-07T00:48:23;14.20;99.90
64843;DHT22;51310;52.198;5.422;2022-08-07T00:50:49;14.20;99.90
64843;DHT22;51310;52.198;5.422;2022-08-07T00:53:16;14.10;99.90
64843;DHT22;51310;52.198;5.422;2022-08-07T00:55:42;14.00;99.90
64843;DHT22;51310;52.198;5.422;2022-08-07T00:58:08;15.70;99.90
64843;DHT22;51310;52.198;5.422;2022-08-07T01:00:34;14.20;99.90
64843;DHT22;51310;52.198;5.422;2022-08-07T01:03:00;14.30;99.90
64843;DHT22;51310;52.198;5.422;2022-08-07T01:05:26;14.30;99.90
64843;DHT22;51310;52.198;5.422;2022-08-07T01:07:53;14.70;99.90
64843;DHT22;51310;52.198;5.422;2022-08-07T01:10:19;14.40;99.90
64843;DHT22;51310;52.198;5.422;2022-08-07T01:12:45;14.40;99.90
64843;DHT22;51310;52.198;5.422;2022-08-07T01:15:12;14.90;99.90
64843;DHT22;51310;52.198;5.422;2022-08-07T01:17:38;14.10;99.90
64843;DHT22;51310;52.198;5.422;2022-08-07T01:20:09;14.00;99.90
64843;DHT22;51310;52.198;5.422;2022-08-07T01:22:38;13.70;99.90
64843;DHT22;51310;52.198;5.422;2022-08-07T01:25:06;13.50;99.90
64843;DHT22;51310;52.198;5.422;2022-08-07T01:27:35;13.60;99.90
64843;DHT22;51310;52.198;5.422;2022-08-07T01:30:02;14.50;99.90
64843;DHT22;51310;52.198;5.422;2022-08-07T01:32:29;13.70;99.90
64843;DHT22;51310;52.198;5.422;2022-08-07T01:34:56;13.70;99.90
64843;DHT22;51310;52.198;5.422;2022-08-07T01:37:22;13.70;99.90
64843;DHT22;51310;52.198;5.422;2022-08-07T01:39:48;13.60;99.90
64843;DHT22;51310;52.198;5.422;2022-08-07T01:42:14;13.90;99.90
64843;DHT22;51310;52.198;5.422;2022-08-07T01:44:42;13.60;99.90
64843;DHT22;51310;52.198;5.422;2022-08-07T01:47:08;13.70;99.90
64843;DHT22;51310;52.198;5.422;2022-08-07T01:49:35;13.70;99.90
64843;DHT22;51310;52.198;5.422;2022-08-07T01:52:03;13.50;99.90
64843;DHT22;51310;52.198;5.422;2022-08-07T01:54:35;13.60;99.90
64843;DHT22;51310;52.198;5.422;2022-08-07T01:57:24;13.90;99.90
64843;DHT22;51310;52.198;5.422;2022-08-07T02:00:11;15.60;99.90
64843;DHT22;51310;52.198;5.422;2022-08-07T02:02:49;13.70;99.90
64843;DHT22;51310;52.198;5.422;2022-08-07T02:05:33;13.80;99.90
64843;DHT22;51310;52.198;5.422;2022-08-07T02:08:12;13.80;99.90
64843;DHT22;51310;52.198;5.422;2022-08-07T02:10:42;13.40;99.90
64843;DHT22;51310;52.198;5.422;2022-08-07T02:13:11;13.40;99.90
64843;DHT22;51310;52.198;5.422;2022-08-07T02:15:39;13.50;99.90
64843;DHT22;51310;52.198;5.422;2022-08-07T02:18:10;13.40;99.90
64843;DHT22;51310;52.198;5.422;2022-08-07T02:20:38;13.40;99.90
64843;DHT22;51310;52.198;5.422;2022-08-07T02:23:08;13.60;99.90
64843;DHT22;51310;52.198;5.422;2022-08-07T02:25:38;13.40;99.90
64843;DHT22;51310;52.198;5.422;2022-08-07T02:28:06;13.50;99.90
64843;DHT22;51310;52.198;5.422;2022-08-07T02:30:35;14.80;99.90
64843;DHT22;51310;52.198;5.422;2022-08-07T02:33:03;13.40;99.90
64843;DHT22;51310;52.198;5.422;2022-08-07T02:35:33;14.10;99.90
64843;DHT22;51310;52.198;5.422;2022-08-07T02:38:02;13.10;99.90
64843;DHT22;51310;52.198;5.422;2022-08-07T02:40:31;13.00;99.90
64843;DHT22;51310;52.198;5.422;2022-08-07T02:42:59;13.10;99.90
64843;DHT22;51310;52.198;5.422;2022-08-07T02:45:27;15.30;99.90
64843;DHT22;51310;52.198;5.422;2022-08-07T02:47:56;14.00;99.90
64843;DHT22;51310;52.198;5.422;2022-08-07T02:50:22;13.10;99.90
64843;DHT22;51310;52.198;5.422;2022-08-07T02:53:05;12.90;99.90
64843;DHT22;51310;52.198;5.422;2022-08-07T02:55:38;12.80;99.90
64843;DHT22;51310;52.198;5.422;2022-08-07T02:58:16;12.80;99.90
64843;DHT22;51310;52.198;5.422;2022-08-07T03:00:49;12.70;99.90
64843;DHT22;51310;52.198;5.422;2022-08-07T03:03:18;12.70;99.90
64843;DHT22;51310;52.198;5.422;2022-08-07T03:05:46;13.40;99.90
64843;DHT22;51310;52.198;5.422;2022-08-07T03:08:15;12.80;99.90
64843;DHT22;51310;52.198;5.422;2022-08-07T03:10:43;12.80;99.90
64843;DHT22;51310;52.198;5.422;2022-08-07T03:13:11;12.70;99.90
64843;DHT22;51310;52.198;5.422;2022-08-07T03:15:39;12.80;99.90
64843;DHT22;51310;52.198;5.422;2022-08-07T03:18:06;12.80;99.90
64843;DHT22;51310;52.198;5.422;2022-08-07T03:20:33;12.90;99.90
64843;DHT22;51310;52.198;5.422;2022-08-07T03:23:00;13.10;99.90
64843;DHT22;51310;52.198;5.422;2022-08-07T03:25:28;13.20;99.90
64843;DHT22;51310;52.198;5.422;2022-08-07T03:27:58;13.20;99.90
64843;DHT22;51310;52.198;5.422;2022-08-07T03:30:26;13.60;99.90
64843;DHT22;51310;52.198;5.422;2022-08-07T03:32:53;13.00;99.90
64843;DHT22;51310;52.198;5.422;2022-08-07T03:35:23;12.90;99.90
64843;DHT22;51310;52.198;5.422;2022-08-07T03:38:10;12.80;99.90
64843;DHT22;51310;52.198;5.422;2022-08-07T03:40:38;12.80;99.90
64843;DHT22;51310;52.198;5.422;2022-08-07T03:43:05;12.70;99.90
64843;DHT22;51310;52.198;5.422;2022-08-07T03:45:31;12.70;99.90
64843;DHT22;51310;52.198;5.422;2022-08-07T03:47:58;12.60;99.90
64843;DHT22;51310;52.198;5.422;2022-08-07T03:50:25;12.60;99.90
64843;DHT22;51310;52.198;5.422;2022-08-07T03:52:52;12.50;99.90
64843;DHT22;51310;52.198;5.422;2022-08-07T03:55:23;12.40;99.90
64843;DHT22;51310;52.198;5.422;2022-08-07T03:57:49;12.30;99.90
64843;DHT22;51310;52.198;5.422;2022-08-07T04:00:17;12.30;99.90
64843;DHT22;51310;52.198;5.422;2022-08-07T04:02:44;12.30;99.90
64843;DHT22;51310;52.198;5.422;2022-08-07T04:05:10;12.40;99.90
64843;DHT22;51310;52.198;5.422;2022-08-07T04:07:36;12.40;99.90
64843;DHT22;51310;52.198;5.422;2022-08-07T04:10:03;12.30;99.90
64843;DHT22;51310;52.198;5.422;2022-08-07T04:12:30;12.40;99.90
64843;DHT22;51310;52.198;5.422;2022-08-07T04:14:57;12.50;99.90
64843;DHT22;51310;52.198;5.422;2022-08-07T04:17:24;14.60;99.90
64843;DHT22;51310;52.198;5.422;2022-08-07T04:19:50;12.40;99.90
64843;DHT22;51310;52.198;5.422;2022-08-07T04:22:16;12.50;99.90
64843;DHT22;51310;52.198;5.422;2022-08-07T04:24:44;12.50;99.90
64843;DHT22;51310;52.198;5.422;2022-08-07T04:27:10;12.40;99.90
64843;DHT22;51310;52.198;5.422;2022-08-07T04:29:36;12.30;99.90
64843;DHT22;51310;52.198;5.422;2022-08-07T04:32:02;12.30;99.90
64843;DHT22;51310;52.198;5.422;2022-08-07T04:34:29;12.40;99.90
64843;DHT22;51310;52.198;5.422;2022-08-07T04:36:56;12.60;99.90
64843;DHT22;51310;52.198;5.422;2022-08-07T04:39:21;12.70;99.90
64843;DHT22;51310;52.198;5.422;2022-08-07T04:41:47;12.70;99.90
64843;DHT22;51310;52.198;5.422;2022-08-07T04:44:14;12.70;99.90
64843;DHT22;51310;52.198;5.422;2022-08-07T04:49:58;12.60;99.90
64843;DHT22;51310;52.198;5.422;2022-08-07T04:52:49;12.70;99.90
64843;DHT22;51310;52.198;5.422;2022-08-07T04:55:23;12.70;99.90
64843;DHT22;51310;52.198;5.422;2022-08-07T04:58:21;12.70;99.90
64843;DHT22;51310;52.198;5.422;2022-08-07T05:01:05;12.70;99.90
64843;DHT22;51310;52.198;5.422;2022-08-07T05:06:32;12.90;99.90
64843;DHT22;51310;52.198;5.422;2022-08-07T05:09:39;13.30;99.90
64843;DHT22;51310;52.198;5.422;2022-08-07T05:12:16;13.30;99.90
64843;DHT22;51310;52.198;5.422;2022-08-07T05:14:57;13.50;99.90
64843;DHT22;51310;52.198;5.422;2022-08-07T05:17:43;13.80;99.90
64843;DHT22;51310;52.198;5.422;2022-08-07T05:20:16;14.30;99.90
64843;DHT22;51310;52.198;5.422;2022-08-07T05:22:50;14.70;99.90
64843;DHT22;51310;52.198;5.422;2022-08-07T05:25:20;15.10;99.90
64843;DHT22;51310;52.198;5.422;2022-08-07T05:27:47;15.50;99.90
64843;DHT22;51310;52.198;5.422;2022-08-07T05:30:18;16.50;99.90
64843;DHT22;51310;52.198;5.422;2022-08-07T05:32:47;15.60;99.90
64843;DHT22;51310;52.198;5.422;2022-08-07T05:35:15;15.90;99.90
64843;DHT22;51310;52.198;5.422;2022-08-07T05:37:44;16.10;99.10
64843;DHT22;51310;52.198;5.422;2022-08-07T05:40:11;16.30;97.90
64843;DHT22;51310;52.198;5.422;2022-08-07T05:42:38;16.80;96.80
64843;DHT22;51310;52.198;5.422;2022-08-07T05:45:06;16.60;95.50
64843;DHT22;51310;52.198;5.422;2022-08-07T05:47:32;16.70;93.60
64843;DHT22;51310;52.198;5.422;2022-08-07T05:50:01;17.40;93.10
64843;DHT22;51310;52.198;5.422;2022-08-07T05:52:28;17.00;91.60
64843;DHT22;51310;52.198;5.422;2022-08-07T05:54:53;17.20;91.30
64843;DHT22;51310;52.198;5.422;2022-08-07T05:57:20;17.80;91.30
64843;DHT22;51310;52.198;5.422;2022-08-07T05:59:48;16.70;90.20
64843;DHT22;51310;52.198;5.422;2022-08-07T06:02:18;16.20;92.80
64843;DHT22;51310;52.198;5.422;2022-08-07T06:04:50;16.60;91.20
64843;DHT22;51310;52.198;5.422;2022-08-07T06:07:19;17.90;89.60
64843;DHT22;51310;52.198;5.422;2022-08-07T06:09:48;17.50;79.30
64843;DHT22;51310;52.198;5.422;2022-08-07T06:12:14;19.00;82.60
64843;DHT22;51310;52.198;5.422;2022-08-07T06:14:41;16.70;83.90
64843;DHT22;51310;52.198;5.422;2022-08-07T06:17:08;17.10;82.10
64843;DHT22;51310;52.198;5.422;2022-08-07T06:19:37;16.90;82.70
64843;DHT22;51310;52.198;5.422;2022-08-07T06:22:04;16.50;81.30
64843;DHT22;51310;52.198;5.422;2022-08-07T06:24:31;16.30;84.30
64843;DHT22;51310;52.198;5.422;2022-08-07T06:26:57;16.60;84.60
64843;DHT22;51310;52.198;5.422;2022-08-07T06:29:27;16.80;83.10
64843;DHT22;51310;52.198;5.422;2022-08-07T06:31:54;16.90;82.40
64843;DHT22;51310;52.198;5.422;2022-08-07T06:34:24;16.80;80.60
64843;DHT22;51310;52.198;5.422;2022-08-07T06:36:52;17.20;79.60
64843;DHT22;51310;52.198;5.422;2022-08-07T06:39:21;17.10;77.90
64843;DHT22;51310;52.198;5.422;2022-08-07T06:41:55;18.00;82.00
64843;DHT22;51310;52.198;5.422;2022-08-07T06:44:29;16.70;84.30
64843;DHT22;51310;52.198;5.422;2022-08-07T06:46:56;16.70;87.80
64843;DHT22;51310;52.198;5.422;2022-08-07T06:49:23;16.80;87.50
64843;DHT22;51310;52.198;5.422;2022-08-07T06:51:49;18.00;88.30
64843;DHT22;51310;52.198;5.422;2022-08-07T06:54:18;16.90;89.90
64843;DHT22;51310;52.198;5.422;2022-08-07T06:56:45;17.20;84.60
64843;DHT22;51310;52.198;5.422;2022-08-07T06:59:21;17.20;84.20
64843;DHT22;51310;52.198;5.422;2022-08-07T07:01:52;17.10;80.50
64843;DHT22;51310;52.198;5.422;2022-08-07T07:04:19;18.00;81.10
64843;DHT22;51310;52.198;5.422;2022-08-07T07:06:45;18.20;83.40
64843;DHT22;51310;52.198;5.422;2022-08-07T07:09:24;17.20;84.00
64843;DHT22;51310;52.198;5.422;2022-08-07T07:12:29;17.40;82.40
64843;DHT22;51310;52.198;5.422;2022-08-07T07:17:58;17.40;79.40
64843;DHT22;51310;52.198;5.422;2022-08-07T07:20:43;17.50;78.80
64843;DHT22;51310;52.198;5.422;2022-08-07T07:23:17;17.50;79.00
64843;DHT22;51310;52.198;5.422;2022-08-07T07:25:47;18.90;80.20
64843;DHT22;51310;52.198;5.422;2022-08-07T07:28:32;17.40;77.30
64843;DHT22;51310;52.198;5.422;2022-08-07T07:31:31;17.40;77.40
64843;DHT22;51310;52.198;5.422;2022-08-07T07:34:06;17.60;76.70
64843;DHT22;51310;52.198;5.422;2022-08-07T07:36:37;17.60;76.80
64843;DHT22;51310;52.198;5.422;2022-08-07T07:39:06;18.00;76.50
64843;DHT22;51310;52.198;5.422;2022-08-07T07:41:35;17.70;77.40
64843;DHT22;51310;52.198;5.422;2022-08-07T07:44:05;17.90;74.50
64843;DHT22;51310;52.198;5.422;2022-08-07T07:46:35;18.10;73.70
64843;DHT22;51310;52.198;5.422;2022-08-07T07:49:05;18.10;73.00
64843;DHT22;51310;52.198;5.422;2022-08-07T07:51:34;17.90;74.60
64843;DHT22;51310;52.198;5.422;2022-08-07T07:54:04;18.00;73.80
64843;DHT22;51310;52.198;5.422;2022-08-07T07:56:32;17.90;72.80
64843;DHT22;51310;52.198;5.422;2022-08-07T07:59:02;19.00;73.30
64843;DHT22;51310;52.198;5.422;2022-08-07T08:01:30;18.30;69.80
64843;DHT22;51310;52.198;5.422;2022-08-07T08:04:02;18.30;71.70
64843;DHT22;51310;52.198;5.422;2022-08-07T08:06:31;18.30;71.50
64843;DHT22;51310;52.198;5.422;2022-08-07T08:09:00;18.40;70.90
64843;DHT22;51310;52.198;5.422;2022-08-07T08:11:29;18.50;70.70
64843;DHT22;51310;52.198;5.422;2022-08-07T08:13:55;18.70;68.40
64843;DHT22;51310;52.198;5.422;2022-08-07T08:16:37;18.40;69.60
64843;DHT22;51310;52.198;5.422;2022-08-07T08:19:06;18.20;70.50
64843;DHT22;51310;52.198;5.422;2022-08-07T08:21:50;18.40;68.30
64843;DHT22;51310;52.198;5.422;2022-08-07T08:24:42;18.40;70.00
64843;DHT22;51310;52.198;5.422;2022-08-07T08:27:35;18.70;68.10
64843;DHT22;51310;52.198;5.422;2022-08-07T08:30:08;18.60;67.10
64843;DHT22;51310;52.198;5.422;2022-08-07T08:32:40;18.70;68.00
64843;DHT22;51310;52.198;5.422;2022-08-07T08:35:22;18.70;67.90
64843;DHT22;51310;52.198;5.422;2022-08-07T08:37:54;19.00;66.50
64843;DHT22;51310;52.198;5.422;2022-08-07T08:40:31;18.90;64.40
64843;DHT22;51310;52.198;5.422;2022-08-07T08:43:09;19.00;65.20
64843;DHT22;51310;52.198;5.422;2022-08-07T08:46:05;18.90;66.70
64843;DHT22;51310;52.198;5.422;2022-08-07T08:52:10;19.00;63.30
64843;DHT22;51310;52.198;5.422;2022-08-07T08:54:59;19.70;64.10
64843;DHT22;51310;52.198;5.422;2022-08-07T08:57:41;19.00;62.80
64843;DHT22;51310;52.198;5.422;2022-08-07T09:00:14;19.10;64.60
64843;DHT22;51310;52.198;5.422;2022-08-07T09:05:40;18.90;61.80
64843;DHT22;51310;52.198;5.422;2022-08-07T09:16:47;19.50;57.60
64843;DHT22;51310;52.198;5.422;2022-08-07T09:35:06;20.10;57.60
64843;DHT22;51310;52.198;5.422;2022-08-07T09:43:40;20.00;53.80
64843;DHT22;51310;52.198;5.422;2022-08-07T09:52:51;20.10;55.50
64843;DHT22;51310;52.198;5.422;2022-08-07T10:04:53;20.00;56.80
64843;DHT22;51310;52.198;5.422;2022-08-07T10:07:58;20.10;56.90
64843;DHT22;51310;52.198;5.422;2022-08-07T10:10:47;20.30;53.10
64843;DHT22;51310;52.198;5.422;2022-08-07T10:29:42;20.60;47.10
64843;DHT22;51310;52.198;5.422;2022-08-07T10:32:45;20.50;48.40
64843;DHT22;51310;52.198;5.422;2022-08-07T10:51:36;20.70;45.00
64843;DHT22;51310;52.198;5.422;2022-08-07T10:54:40;20.80;45.00
64843;DHT22;51310;52.198;5.422;2022-08-07T11:00:12;20.90;42.60
64843;DHT22;51310;52.198;5.422;2022-08-07T11:03:05;21.10;41.60
64843;DHT22;51310;52.198;5.422;2022-08-07T11:06:02;21.10;41.90
64843;DHT22;51310;52.198;5.422;2022-08-07T11:08:53;21.10;42.20
64843;DHT22;51310;52.198;5.422;2022-08-07T11:11:42;21.10;41.90
64843;DHT22;51310;52.198;5.422;2022-08-07T11:14:23;21.20;43.00
64843;DHT22;51310;52.198;5.422;2022-08-07T11:17:23;21.10;44.60
64843;DHT22;51310;52.198;5.422;2022-08-07T11:19:58;21.30;42.50
64843;DHT22;51310;52.198;5.422;2022-08-07T11:22:42;21.60;41.80
64843;DHT22;51310;52.198;5.422;2022-08-07T11:26:16;21.20;40.00
64843;DHT22;51310;52.198;5.422;2022-08-07T11:29:02;21.20;39.30
64843;DHT22;51310;52.198;5.422;2022-08-07T11:31:36;21.00;42.00
64843;DHT22;51310;52.198;5.422;2022-08-07T11:34:35;21.00;42.00
64843;DHT22;51310;52.198;5.422;2022-08-07T11:41:10;21.40;43.10
64843;DHT22;51310;52.198;5.422;2022-08-07T11:43:51;21.50;45.60
64843;DHT22;51310;52.198;5.422;2022-08-07T11:47:08;21.40;45.20
64843;DHT22;51310;52.198;5.422;2022-08-07T11:53:26;21.10;46.10
64843;DHT22;51310;52.198;5.422;2022-08-07T12:00:02;21.40;46.70
64843;DHT22;51310;52.198;5.422;2022-08-07T12:09:45;21.50;46.20
64843;DHT22;51310;52.198;5.422;2022-08-07T12:15:35;21.80;41.20
64843;DHT22;51310;52.198;5.422;2022-08-07T12:18:23;22.40;38.10
64843;DHT22;51310;52.198;5.422;2022-08-07T12:21:15;22.20;38.40
64843;DHT22;51310;52.198;5.422;2022-08-07T12:24:07;21.90;39.30
64843;DHT22;51310;52.198;5.422;2022-08-07T12:27:09;22.00;37.00
64843;DHT22;51310;52.198;5.422;2022-08-07T12:30:15;21.90;38.20
64843;DHT22;51310;52.198;5.422;2022-08-07T12:33:00;22.70;37.10
64843;DHT22;51310;52.198;5.422;2022-08-07T12:35:30;21.80;35.60
64843;DHT22;51310;52.198;5.422;2022-08-07T12:37:59;22.00;33.70
64843;DHT22;51310;52.198;5.422;2022-08-07T12:40:28;22.10;33.00
64843;DHT22;51310;52.198;5.422;2022-08-07T12:42:59;22.10;31.40
64843;DHT22;51310;52.198;5.422;2022-08-07T12:45:55;22.10;25.90
64843;DHT22;51310;52.198;5.422;2022-08-07T12:48:49;22.20;28.30
64843;DHT22;51310;52.198;5.422;2022-08-07T12:51:34;22.40;31.70
64843;DHT22;51310;52.198;5.422;2022-08-07T12:54:16;22.10;30.30
64843;DHT22;51310;52.198;5.422;2022-08-07T12:56:52;22.00;31.20
64843;DHT22;51310;52.198;5.422;2022-08-07T12:59:24;22.30;31.10
64843;DHT22;51310;52.198;5.422;2022-08-07T13:02:56;22.10;32.60
64843;DHT22;51310;52.198;5.422;2022-08-07T13:17:37;22.20;32.90
64843;DHT22;51310;52.198;5.422;2022-08-07T13:20:33;22.20;32.60
64843;DHT22;51310;52.198;5.422;2022-08-07T13:23:13;22.40;32.50
64843;DHT22;51310;52.198;5.422;2022-08-07T13:25:49;22.40;32.10
64843;DHT22;51310;52.198;5.422;2022-08-07T13:28:40;22.30;31.70
64843;DHT22;51310;52.198;5.422;2022-08-07T13:43:28;22.20;27.50
64843;DHT22;51310;52.198;5.422;2022-08-07T13:45:59;22.20;28.40
64843;DHT22;51310;52.198;5.422;2022-08-07T13:48:31;22.30;27.90
64843;DHT22;51310;52.198;5.422;2022-08-07T13:50:58;22.40;27.80
64843;DHT22;51310;52.198;5.422;2022-08-07T13:53:30;22.60;28.30
64843;DHT22;51310;52.198;5.422;2022-08-07T13:56:02;24.30;28.70
64843;DHT22;51310;52.198;5.422;2022-08-07T13:58:39;22.30;28.10
64843;DHT22;51310;52.198;5.422;2022-08-07T14:01:41;22.50;27.30
64843;DHT22;51310;52.198;5.422;2022-08-07T14:04:15;22.60;26.80
64843;DHT22;51310;52.198;5.422;2022-08-07T14:06:44;22.70;25.60
64843;DHT22;51310;52.198;5.422;2022-08-07T14:09:20;22.40;26.70
64843;DHT22;51310;52.198;5.422;2022-08-07T14:11:55;22.70;27.10
64843;DHT22;51310;52.198;5.422;2022-08-07T14:14:38;22.50;28.60
64843;DHT22;51310;52.198;5.422;2022-08-07T14:17:11;22.70;28.70
64843;DHT22;51310;52.198;5.422;2022-08-07T14:19:55;22.80;27.10
64843;DHT22;51310;52.198;5.422;2022-08-07T14:22:30;22.80;29.00
64843;DHT22;51310;52.198;5.422;2022-08-07T14:25:17;22.50;30.00
64843;DHT22;51310;52.198;5.422;2022-08-07T14:27:50;22.50;30.20
64843;DHT22;51310;52.198;5.422;2022-08-07T14:30:19;22.60;31.30
64843;DHT22;51310;52.198;5.422;2022-08-07T14:32:54;22.90;30.70
64843;DHT22;51310;52.198;5.422;2022-08-07T14:35:28;22.90;31.50
64843;DHT22;51310;52.198;5.422;2022-08-07T14:38:00;22.80;32.20
64843;DHT22;51310;52.198;5.422;2022-08-07T14:40:28;22.60;32.40
64843;DHT22;51310;52.198;5.422;2022-08-07T14:43:07;22.60;31.20
64843;DHT22;51310;52.198;5.422;2022-08-07T14:45:48;22.50;32.40
64843;DHT22;51310;52.198;5.422;2022-08-07T14:48:21;22.50;31.90
64843;DHT22;51310;52.198;5.422;2022-08-07T14:50:55;22.70;32.10
64843;DHT22;51310;52.198;5.422;2022-08-07T14:53:28;22.90;32.40
64843;DHT22;51310;52.198;5.422;2022-08-07T14:56:04;22.70;32.60
64843;DHT22;51310;52.198;5.422;2022-08-07T14:58:36;22.80;31.90
64843;DHT22;51310;52.198;5.422;2022-08-07T15:01:08;22.60;32.30
64843;DHT22;51310;52.198;5.422;2022-08-07T15:03:38;22.40;32.30
64843;DHT22;51310;52.198;5.422;2022-08-07T15:06:06;22.60;32.40
64843;DHT22;51310;52.198;5.422;2022-08-07T15:08:35;22.90;32.00
64843;DHT22;51310;52.198;5.422;2022-08-07T15:11:07;22.80;32.10
64843;DHT22;51310;52.198;5.422;2022-08-07T15:13:40;22.50;33.30
64843;DHT22;51310;52.198;5.422;2022-08-07T15:16:15;22.50;32.30
64843;DHT22;51310;52.198;5.422;2022-08-07T15:18:45;22.40;33.30
64843;DHT22;51310;52.198;5.422;2022-08-07T15:21:33;22.40;33.70
64843;DHT22;51310;52.198;5.422;2022-08-07T15:24:13;22.40;34.00
64843;DHT22;51310;52.198;5.422;2022-08-07T15:26:50;23.30;35.30
64843;DHT22;51310;52.198;5.422;2022-08-07T15:29:23;22.20;34.60
64843;DHT22;51310;52.198;5.422;2022-08-07T15:32:00;22.20;34.30
64843;DHT22;51310;52.198;5.422;2022-08-07T15:34:47;22.20;34.50
64843;DHT22;51310;52.198;5.422;2022-08-07T15:37:21;22.40;33.60
64843;DHT22;51310;52.198;5.422;2022-08-07T15:39:56;22.30;34.70
64843;DHT22;51310;52.198;5.422;2022-08-07T15:42:34;22.50;35.00
64843;DHT22;51310;52.198;5.422;2022-08-07T15:47:52;22.40;36.00
64843;DHT22;51310;52.198;5.422;2022-08-07T15:50:33;23.40;36.40
64843;DHT22;51310;52.198;5.422;2022-08-07T15:53:13;22.50;34.70
64843;DHT22;51310;52.198;5.422;2022-08-07T15:55:56;22.50;35.90
64843;DHT22;51310;52.198;5.422;2022-08-07T16:01:22;24.00;37.50
64843;DHT22;51310;52.198;5.422;2022-08-07T16:03:54;22.30;37.30
64843;DHT22;51310;52.198;5.422;2022-08-07T16:06:30;23.60;38.00
64843;DHT22;51310;52.198;5.422;2022-08-07T16:09:12;22.30;36.30
64843;DHT22;51310;52.198;5.422;2022-08-07T16:18:27;21.90;39.30
64843;DHT22;51310;52.198;5.422;2022-08-07T16:21:33;22.10;39.60
64843;DHT22;51310;52.198;5.422;2022-08-07T16:27:28;22.20;38.90
64843;DHT22;51310;52.198;5.422;2022-08-07T16:30:07;22.70;40.00
64843;DHT22;51310;52.198;5.422;2022-08-07T16:32:49;22.10;38.60
64843;DHT22;51310;52.198;5.422;2022-08-07T16:35:45;22.00;38.50
64843;DHT22;51310;52.198;5.422;2022-08-07T16:38:53;21.60;41.60
64843;DHT22;51310;52.198;5.422;2022-08-07T16:44:47;21.80;39.50
64843;DHT22;51310;52.198;5.422;2022-08-07T16:56:16;22.00;39.90
64843;DHT22;51310;52.198;5.422;2022-08-07T17:05:42;23.10;37.90
64843;DHT22;51310;52.198;5.422;2022-08-07T17:08:31;22.80;37.30
64843;DHT22;51310;52.198;5.422;2022-08-07T17:11:00;23.60;37.80
64843;DHT22;51310;52.198;5.422;2022-08-07T17:13:55;22.70;37.00
64843;DHT22;51310;52.198;5.422;2022-08-07T17:16:48;22.80;37.60
64843;DHT22;51310;52.198;5.422;2022-08-07T17:19:43;22.50;37.00
64843;DHT22;51310;52.198;5.422;2022-08-07T17:22:23;22.40;38.30
64843;DHT22;51310;52.198;5.422;2022-08-07T17:28:02;22.80;37.40
64843;DHT22;51310;52.198;5.422;2022-08-07T17:31:03;22.50;37.70
64843;DHT22;51310;52.198;5.422;2022-08-07T17:33:37;22.40;37.30
64843;DHT22;51310;52.198;5.422;2022-08-07T17:36:17;22.30;37.60
64843;DHT22;51310;52.198;5.422;2022-08-07T17:42:04;22.00;39.50
64843;DHT22;51310;52.198;5.422;2022-08-07T17:50:48;22.20;39.50
64843;DHT22;51310;52.198;5.422;2022-08-07T17:56:47;22.80;38.80
64843;DHT22;51310;52.198;5.422;2022-08-07T17:59:41;22.80;38.40
64843;DHT22;51310;52.198;5.422;2022-08-07T18:05:17;22.20;39.70
64843;DHT22;51310;52.198;5.422;2022-08-07T18:08:06;22.50;39.00
64843;DHT22;51310;52.198;5.422;2022-08-07T18:10:48;22.50;39.90
64843;DHT22;51310;52.198;5.422;2022-08-07T18:16:46;22.20;42.80
64843;DHT22;51310;52.198;5.422;2022-08-07T18:19:50;22.10;41.90
64843;DHT22;51310;52.198;5.422;2022-08-07T18:22:28;22.10;42.80
64843;DHT22;51310;52.198;5.422;2022-08-07T18:25:14;22.20;43.30
64843;DHT22;51310;52.198;5.422;2022-08-07T18:38:01;21.50;45.60
64843;DHT22;51310;52.198;5.422;2022-08-07T18:44:10;21.40;46.80
64843;DHT22;51310;52.198;5.422;2022-08-07T18:47:36;21.00;48.00
64843;DHT22;51310;52.198;5.422;2022-08-07T18:50:56;21.10;48.00
64843;DHT22;51310;52.198;5.422;2022-08-07T19:02:37;20.10;50.90
64843;DHT22;51310;52.198;5.422;2022-08-07T19:05:26;19.80;52.70
64843;DHT22;51310;52.198;5.422;2022-08-07T19:08:10;20.00;52.40
64843;DHT22;51310;52.198;5.422;2022-08-07T19:11:07;19.70;53.60
64843;DHT22;51310;52.198;5.422;2022-08-07T19:13:59;19.80;53.70
64843;DHT22;51310;52.198;5.422;2022-08-07T19:16:57;19.50;55.10
64843;DHT22;51310;52.198;5.422;2022-08-07T19:19:45;19.50;55.50
64843;DHT22;51310;52.198;5.422;2022-08-07T19:22:56;19.30;56.60
64843;DHT22;51310;52.198;5.422;2022-08-07T19:25:43;19.10;57.50
64843;DHT22;51310;52.198;5.422;2022-08-07T19:28:14;19.00;58.50
64843;DHT22;51310;52.198;5.422;2022-08-07T19:30:57;20.60;60.00
64843;DHT22;51310;52.198;5.422;2022-08-07T19:33:38;19.10;58.90
64843;DHT22;51310;52.198;5.422;2022-08-07T19:36:12;18.90;60.10
64843;DHT22;51310;52.198;5.422;2022-08-07T19:38:43;18.70;61.10
64843;DHT22;51310;52.198;5.422;2022-08-07T19:41:21;18.60;62.20
64843;DHT22;51310;52.198;5.422;2022-08-07T19:43:53;18.50;63.00
64843;DHT22;51310;52.198;5.422;2022-08-07T19:46:30;18.50;63.20
64843;DHT22;51310;52.198;5.422;2022-08-07T19:49:25;18.50;63.70
64843;DHT22;51310;52.198;5.422;2022-08-07T19:51:58;18.30;63.60
64843;DHT22;51310;52.198;5.422;2022-08-07T19:54:25;18.30;64.60
64843;DHT22;51310;52.198;5.422;2022-08-07T19:56:59;18.30;65.00
64843;DHT22;51310;52.198;5.422;2022-08-07T19:59:30;18.30;65.40
64843;DHT22;51310;52.198;5.422;2022-08-07T20:02:07;18.30;65.70
64843;DHT22;51310;52.198;5.422;2022-08-07T20:04:42;18.30;66.10
64843;DHT22;51310;52.198;5.422;2022-08-07T20:07:11;18.10;66.40